Edmonton Namao Alta., Canada
Current Conditions -  °F | °C
As of 9:00 AM on Wednesday 22 Oct 2014 (Local Time) from CYXD Reporting Station
Clear Clear  
Wind Chill: 38°   Ceiling: Unl
Heat Index: 43°   Visibility: 9mi
Dew Point: 34°   Wind: 8mph
Humidity: 70%   Direction: 150°SSE
Pressure: 29.67"   Gusts: NA
Location:  53.61°N, 113.46°W
Report Text: CYXD 221500Z AUTO 15007KT 9SM CLR 06/01 A2967 RMK SLP063
Loading
Personal Weather Stations






























Interactive Weather Map New forecast layout! Learn more

10-Day Weather Forecast

Advertisements
Track Severe Weather on mobile